createdAt,value
2018-05-09T00:00:52.852Z,98864.45
2018-05-09T00:06:57.629Z,98866.33
2018-05-09T00:13:01.989Z,98859.00
2018-05-09T00:19:06.342Z,98862.71
2018-05-09T00:25:11.152Z,98866.71
2018-05-09T00:31:15.496Z,98856.96
2018-05-09T00:37:20.903Z,98856.23
2018-05-09T00:43:25.301Z,98848.08
2018-05-09T00:49:29.656Z,98846.31
2018-05-09T00:55:33.993Z,98849.55
2018-05-09T01:01:38.415Z,98853.41
2018-05-09T01:07:42.816Z,98848.30
2018-05-09T01:13:47.343Z,98847.61
2018-05-09T01:19:52.759Z,98843.95
2018-05-09T01:25:57.205Z,98840.65
2018-05-09T01:32:01.565Z,98840.22
2018-05-09T01:38:05.941Z,98834.28
2018-05-09T01:44:11.239Z,98827.97
2018-05-09T01:50:15.706Z,98822.39
2018-05-09T01:56:21.788Z,98818.80
2018-05-09T02:02:26.397Z,98824.70
2018-05-09T02:08:30.757Z,98817.95
2018-05-09T02:14:35.093Z,98807.61
2018-05-09T02:20:39.514Z,98811.81
2018-05-09T02:26:43.865Z,98808.61
2018-05-09T02:32:48.390Z,98811.86
2018-05-09T02:38:52.718Z,98805.00
2018-05-09T02:44:57.076Z,98804.89
2018-05-09T02:51:01.429Z,98803.95
2018-05-09T02:57:06.559Z,98803.61
2018-05-09T03:03:10.915Z,98807.20
2018-05-09T03:09:15.291Z,98798.20
2018-05-09T03:15:19.639Z,98801.45
2018-05-09T03:21:24.205Z,98806.16
2018-05-09T03:27:28.674Z,98801.48
2018-05-09T03:33:33.039Z,98797.27
2018-05-09T03:39:37.383Z,98792.89
2018-05-09T03:45:41.720Z,98799.27
2018-05-09T03:51:46.861Z,98806.44
2018-05-09T03:57:51.810Z,98814.50
2018-05-09T04:04:14.041Z,98810.88
2018-05-09T04:10:18.396Z,98814.06
2018-05-09T04:16:28.909Z,98824.05
2018-05-09T04:22:33.254Z,98828.80
2018-05-09T04:28:37.610Z,98824.89
2018-05-09T04:34:41.963Z,98817.20
2018-05-09T04:40:46.325Z,98818.82
2018-05-09T04:46:51.541Z,98816.78
2018-05-09T04:52:55.958Z,98818.25
2018-05-09T04:59:00.392Z,98827.16
2018-05-09T05:05:04.743Z,98820.31
2018-05-09T05:11:09.189Z,98820.54
2018-05-09T05:17:14.341Z,98824.84
2018-05-09T05:23:18.792Z,98827.56
2018-05-09T05:29:23.801Z,98833.24
2018-05-09T05:35:28.170Z,98840.69
2018-05-09T05:41:32.644Z,98844.72
2018-05-09T05:47:37.031Z,98843.80
2018-05-09T05:53:41.453Z,98838.09
2018-05-09T05:59:46.565Z,98832.25
2018-05-09T06:05:52.120Z,98836.98
2018-05-09T06:11:56.544Z,98842.70
2018-05-09T06:18:00.899Z,98843.22
2018-05-09T06:24:06.142Z,98842.85
2018-05-09T06:30:10.497Z,98848.36
2018-05-09T06:36:14.849Z,98856.70
2018-05-09T06:42:20.329Z,98858.82
2018-05-09T06:48:25.198Z,98867.01
2018-05-09T06:54:29.561Z,98870.66
2018-05-09T07:00:33.919Z,98870.39
2018-05-09T07:06:38.486Z,98860.55
2018-05-09T07:12:42.794Z,98850.86
2018-05-09T07:18:47.842Z,98837.06
2018-05-09T07:24:52.223Z,98839.86
2018-05-09T07:30:56.576Z,98844.53
2018-05-09T07:37:01.772Z,98844.97
2018-05-09T07:43:06.879Z,98835.24
2018-05-09T07:49:11.223Z,98829.19
2018-05-09T07:55:16.382Z,98825.15
2018-05-09T08:01:20.861Z,98828.63
2018-05-09T08:07:25.321Z,98824.81
2018-05-09T08:13:29.663Z,98822.77
2018-05-09T08:19:34.025Z,98820.78
2018-05-09T08:25:38.393Z,98825.78
2018-05-09T08:31:42.752Z,98820.52
2018-05-09T08:37:47.088Z,98815.66
2018-05-09T08:43:51.978Z,98813.63
2018-05-09T08:49:56.333Z,98804.47
2018-05-09T08:56:00.665Z,98814.45
2018-05-09T09:02:05.013Z,98805.28
2018-05-09T09:08:09.363Z,98783.32
2018-05-09T09:14:13.763Z,98781.48
2018-05-09T09:20:18.113Z,98766.36
2018-05-09T09:26:24.291Z,98760.73
2018-05-09T09:32:29.469Z,98763.65
2018-05-09T09:38:33.833Z,98759.52
2018-05-09T09:44:38.181Z,98749.67
2018-05-09T09:50:42.606Z,98739.34
2018-05-09T09:56:46.895Z,98727.03
2018-05-09T10:02:51.406Z,98727.39
2018-05-09T10:08:56.000Z,98712.75
2018-05-09T10:15:00.347Z,98705.02
2018-05-09T10:21:04.685Z,98706.80
2018-05-09T10:27:09.030Z,98701.86
2018-05-09T10:33:13.390Z,98710.97
2018-05-09T10:39:17.850Z,98698.97
2018-05-09T10:45:22.273Z,98686.78
2018-05-09T10:51:26.620Z,98686.62
2018-05-09T10:57:30.962Z,98688.42
2018-05-09T11:03:36.071Z,98686.83
2018-05-09T11:09:40.422Z,98677.41
2018-05-09T11:15:44.854Z,98677.78
2018-05-09T11:21:49.190Z,98676.92
2018-05-09T11:27:53.587Z,98673.09
2018-05-09T11:33:57.922Z,98677.44
2018-05-09T11:40:02.270Z,98667.88
2018-05-09T11:46:06.634Z,98654.53
2018-05-09T11:52:11.105Z,98661.30
2018-05-09T11:58:15.555Z,98653.11
2018-05-09T12:04:20.076Z,98658.61
2018-05-09T12:10:25.468Z,98656.53
2018-05-09T12:16:30.888Z,98661.13
2018-05-09T12:22:35.379Z,98659.25
2018-05-09T12:28:39.856Z,98642.63
2018-05-09T12:34:45.001Z,98642.31
2018-05-09T12:40:49.507Z,98641.02
2018-05-09T12:46:54.166Z,98632.31
2018-05-09T12:52:58.519Z,98627.03
2018-05-09T12:59:02.960Z,98614.01
2018-05-09T13:05:07.346Z,98614.18
2018-05-09T13:11:11.805Z,98614.51
2018-05-09T13:17:16.927Z,98605.20
2018-05-09T13:23:22.623Z,98594.13
2018-05-09T13:29:27.041Z,98585.24
2018-05-09T13:35:31.392Z,98584.37
2018-05-09T13:41:35.762Z,98573.06
2018-05-09T13:47:40.206Z,98575.63
2018-05-09T13:53:45.483Z,98567.69
2018-05-09T13:59:49.952Z,98551.09
2018-05-09T14:05:54.316Z,98548.39
2018-05-09T14:11:58.674Z,98539.04
2018-05-09T14:18:03.042Z,98539.04
2018-05-09T14:24:07.435Z,98533.59
2018-05-09T14:30:11.792Z,98536.23
2018-05-09T14:36:16.166Z,98529.55
2018-05-09T14:42:20.571Z,98525.62
2018-05-09T14:48:25.151Z,98512.32
2018-05-09T14:54:29.566Z,98515.42
2018-05-09T15:00:34.665Z,98505.31
2018-05-09T15:06:39.099Z,98500.83
2018-05-09T15:12:44.247Z,98503.73
2018-05-09T15:18:48.622Z,98496.14
2018-05-09T15:24:53.394Z,98483.97
2018-05-09T15:30:57.741Z,98485.91
2018-05-09T15:37:03.000Z,98488.19
2018-05-09T15:43:07.435Z,98475.88
2018-05-09T15:49:11.785Z,98484.66
2018-05-09T15:55:16.150Z,98469.87
2018-05-09T16:01:21.019Z,98476.22
2018-05-09T16:07:25.493Z,98470.09
2018-05-09T16:13:29.879Z,98462.47
2018-05-09T16:19:34.242Z,98464.57
2018-05-09T16:25:38.623Z,98468.92
2018-05-09T16:31:43.005Z,98466.34
2018-05-09T16:37:48.167Z,98455.16
2018-05-09T16:56:52.541Z,98465.84
2018-05-09T17:02:57.697Z,98462.11
2018-05-09T17:09:02.085Z,98458.44
2018-05-09T17:15:06.483Z,98458.92
2018-05-09T17:21:35.388Z,98453.68
2018-05-09T17:27:39.783Z,98451.45
2018-05-09T17:33:44.235Z,98450.75
2018-05-09T17:39:48.639Z,98453.22
2018-05-09T17:45:53.809Z,98449.11
2018-05-09T17:51:58.196Z,98443.05
2018-05-09T17:58:02.561Z,98450.29
2018-05-09T18:04:07.134Z,98447.16
2018-05-09T18:10:11.378Z,98454.86
2018-05-09T18:16:15.797Z,98458.47
2018-05-09T18:22:20.256Z,98465.55
2018-05-09T18:28:24.921Z,98465.82
2018-05-09T18:34:29.293Z,98462.08
2018-05-09T18:40:34.492Z,98469.54
2018-05-09T18:46:38.912Z,98481.11
2018-05-09T18:52:43.358Z,98479.89
2018-05-09T18:58:47.720Z,98485.52
2018-05-09T19:04:52.425Z,98493.02
2018-05-09T19:10:56.816Z,98494.59
2018-05-09T19:17:01.208Z,98505.34
2018-05-09T19:23:05.605Z,98507.42
2018-05-09T19:29:10.721Z,98509.94
2018-05-09T19:35:15.106Z,98518.90
2018-05-09T19:41:19.468Z,98526.66
2018-05-09T19:47:23.897Z,98527.41
2018-05-09T19:53:28.264Z,98525.48
2018-05-09T19:59:32.621Z,98527.73
2018-05-09T20:05:36.988Z,98516.37
2018-05-09T20:11:41.454Z,98517.55
2018-05-09T20:17:45.789Z,98518.77
2018-05-09T20:23:50.247Z,98512.80
2018-05-09T20:29:54.774Z,98509.55
2018-05-09T20:35:59.881Z,98507.28
2018-05-09T20:42:04.349Z,98505.03
2018-05-09T20:48:08.681Z,98505.86
2018-05-09T20:54:13.033Z,98505.48
2018-05-09T21:00:17.393Z,98507.28
2018-05-09T21:06:21.731Z,98513.30
2018-05-09T21:12:26.081Z,98514.52
2018-05-09T21:18:31.228Z,98524.44
2018-05-09T21:24:35.602Z,98522.28
2018-05-09T21:30:39.948Z,98523.75
2018-05-09T21:36:45.286Z,98518.31
2018-05-09T21:42:49.660Z,98516.55
2018-05-09T21:48:54.096Z,98518.46
2018-05-09T21:54:59.200Z,98511.80
2018-05-09T22:01:03.539Z,98513.22
2018-05-09T22:07:07.904Z,98508.49
2018-05-09T22:13:12.282Z,98509.52
2018-05-09T22:19:17.407Z,98513.61
2018-05-09T22:25:22.612Z,98507.73
2018-05-09T22:31:26.980Z,98501.48
2018-05-09T22:37:32.105Z,98499.06
2018-05-09T22:43:36.452Z,98493.60
2018-05-09T22:49:40.817Z,98492.57
2018-05-09T22:55:45.509Z,98482.25
2018-05-09T23:01:50.117Z,98481.36
2018-05-09T23:07:54.589Z,98475.30
2018-05-09T23:13:59.722Z,98462.03
2018-05-09T23:20:04.081Z,98452.80
2018-05-09T23:26:08.522Z,98453.17
2018-05-09T23:32:12.877Z,98446.29
2018-05-09T23:38:17.222Z,98441.53
2018-05-09T23:44:22.153Z,98439.64
2018-05-09T23:50:26.503Z,98430.75
2018-05-09T23:56:31.643Z,98433.98
